createdAt,value
2016-03-24T00:00:37.578Z,1006.14
2016-03-24T00:01:37.566Z,1006.12
2016-03-24T00:02:37.552Z,1006.12
2016-03-24T00:03:37.539Z,1006.13
2016-03-24T00:04:37.527Z,1006.14
2016-03-24T00:05:37.514Z,1006.16
2016-03-24T00:06:37.501Z,1006.17
2016-03-24T00:07:37.488Z,1006.18
2016-03-24T00:08:37.474Z,1006.15
2016-03-24T00:09:37.447Z,1006.18
2016-03-24T00:10:37.433Z,1006.16
2016-03-24T00:11:37.421Z,1006.18
2016-03-24T00:12:37.407Z,1006.16
2016-03-24T00:13:37.395Z,1006.12
2016-03-24T00:14:37.382Z,1006.12
2016-03-24T00:15:37.369Z,1006.12
2016-03-24T00:16:37.356Z,1006.11
2016-03-24T00:17:37.343Z,1006.09
2016-03-24T00:18:37.315Z,1006.09
2016-03-24T00:19:37.317Z,1006.11
2016-03-24T00:20:37.289Z,1006.11
2016-03-24T00:21:37.275Z,1006.13
2016-03-24T00:22:37.263Z,1006.15
2016-03-24T00:23:37.250Z,1006.16
2016-03-24T00:24:37.237Z,1006.14
2016-03-24T00:25:37.223Z,1006.16
2016-03-24T00:26:37.211Z,1006.13
2016-03-24T00:27:37.183Z,1006.19
2016-03-24T00:28:37.170Z,1006.14
2016-03-24T00:29:37.156Z,1006.09
2016-03-24T00:30:37.144Z,1006.08
2016-03-24T00:31:37.131Z,1006.09
2016-03-24T00:32:37.118Z,1006.07
2016-03-24T00:33:37.105Z,1006.09
2016-03-24T00:34:37.091Z,1006.06
2016-03-24T00:35:37.079Z,1006.13
2016-03-24T00:36:37.066Z,1006.13
2016-03-24T00:37:37.038Z,1006.09
2016-03-24T00:38:37.024Z,1006.1
2016-03-24T00:39:37.011Z,1006.09
2016-03-24T00:40:36.998Z,1006.08
2016-03-24T00:41:36.986Z,1006.11
2016-03-24T00:42:36.973Z,1006.05
2016-03-24T00:43:36.960Z,1006.03
2016-03-24T00:44:36.931Z,1005.98
2016-03-24T00:45:36.919Z,1005.96
2016-03-24T00:46:36.905Z,1005.96
2016-03-24T00:47:36.893Z,1005.95
2016-03-24T00:48:36.879Z,1005.97
2016-03-24T00:49:36.867Z,1005.98
2016-03-24T00:50:36.854Z,1005.97
2016-03-24T00:51:36.840Z,1006.01
2016-03-24T00:52:36.828Z,1006
2016-03-24T00:53:36.814Z,1006
2016-03-24T00:54:36.786Z,1006.02
2016-03-24T00:55:36.773Z,1006
2016-03-24T00:56:36.761Z,1006.02
2016-03-24T00:57:36.747Z,1006.01
2016-03-24T00:58:36.734Z,1005.98
2016-03-24T00:59:36.722Z,1005.99
2016-03-24T01:00:36.708Z,1006.02
2016-03-24T01:01:36.680Z,1006.01
2016-03-24T01:02:36.666Z,1006.01
2016-03-24T01:03:36.655Z,1006.01
2016-03-24T01:04:36.641Z,1006.05
2016-03-24T01:05:36.628Z,1006.06
2016-03-24T01:06:36.615Z,1006.08
2016-03-24T01:07:36.602Z,1006.08
2016-03-24T01:08:36.588Z,1006.07
2016-03-24T01:09:36.561Z,1006.08
2016-03-24T01:10:36.548Z,1006.04
2016-03-24T01:11:36.535Z,1006.03
2016-03-24T01:12:36.522Z,1006.03
2016-03-24T01:13:36.510Z,1006.03
2016-03-24T01:14:36.496Z,1005.98
2016-03-24T01:15:36.483Z,1005.98
2016-03-24T01:16:36.470Z,1005.98
2016-03-24T01:17:36.442Z,1005.98
2016-03-24T01:18:36.428Z,1006
2016-03-24T01:19:36.415Z,1005.99
2016-03-24T01:20:36.403Z,1005.95
2016-03-24T01:21:36.389Z,1005.94
2016-03-24T01:22:36.376Z,1005.93
2016-03-24T01:23:36.364Z,1005.94
2016-03-24T01:24:36.351Z,1005.96
2016-03-24T01:25:36.322Z,1005.96
2016-03-24T01:26:36.310Z,1005.91
2016-03-24T01:27:36.297Z,1005.93
2016-03-24T01:28:36.284Z,1005.91
2016-03-24T01:29:36.270Z,1005.87
2016-03-24T01:30:36.258Z,1005.91
2016-03-24T01:31:36.244Z,1005.88
2016-03-24T01:32:36.233Z,1005.88
2016-03-24T01:33:36.203Z,1005.88
2016-03-24T01:34:36.206Z,1005.86
2016-03-24T01:35:36.193Z,1005.83
2016-03-24T01:36:36.164Z,1005.84
2016-03-24T01:37:36.152Z,1005.89
2016-03-24T01:38:36.139Z,1005.86
2016-03-24T01:39:36.126Z,1005.87
2016-03-24T01:40:36.113Z,1005.89
2016-03-24T01:41:36.100Z,1005.86
2016-03-24T01:42:36.071Z,1005.91
2016-03-24T01:43:36.058Z,1005.91
2016-03-24T01:44:36.045Z,1005.88
2016-03-24T01:45:36.032Z,1005.89
2016-03-24T01:46:36.020Z,1005.9
2016-03-24T01:47:36.007Z,1005.92
2016-03-24T01:48:35.993Z,1005.9
2016-03-24T01:49:35.981Z,1005.92
2016-03-24T01:50:35.967Z,1005.94
2016-03-24T01:51:35.940Z,1005.91
2016-03-24T01:52:35.926Z,1005.93
2016-03-24T01:53:35.914Z,1005.9
2016-03-24T01:54:35.901Z,1005.85
2016-03-24T01:55:35.888Z,1005.86
2016-03-24T01:56:35.875Z,1005.87
2016-03-24T01:57:35.862Z,1005.85
2016-03-24T01:58:35.848Z,1005.87
2016-03-24T01:59:35.820Z,1005.87
2016-03-24T02:00:35.808Z,1005.85
2016-03-24T02:01:35.794Z,1005.82
2016-03-24T02:02:35.781Z,1005.8
2016-03-24T02:03:35.783Z,1005.81
2016-03-24T02:04:35.755Z,1005.79
2016-03-24T02:05:35.742Z,1005.77
2016-03-24T02:06:35.714Z,1005.79
2016-03-24T02:07:35.701Z,1005.8
2016-03-24T02:08:35.688Z,1005.76
2016-03-24T02:09:35.675Z,1005.74
2016-03-24T02:10:35.663Z,1005.71
2016-03-24T02:11:35.649Z,1005.74
2016-03-24T02:12:35.636Z,1005.63
2016-03-24T02:13:35.623Z,1005.68
2016-03-24T02:14:35.596Z,1005.61
2016-03-24T02:15:35.582Z,1005.61
2016-03-24T02:16:35.568Z,1005.64
2016-03-24T02:17:35.556Z,1005.6
2016-03-24T02:18:35.559Z,1005.59
2016-03-24T02:19:35.530Z,1005.58
2016-03-24T02:20:35.518Z,1005.58
2016-03-24T02:21:35.504Z,1005.62
2016-03-24T02:22:35.476Z,1005.62
2016-03-24T02:23:35.463Z,1005.65
2016-03-24T02:24:35.451Z,1005.65
2016-03-24T02:25:35.437Z,1005.63
2016-03-24T02:26:35.424Z,1005.62
2016-03-24T02:27:35.411Z,1005.61
2016-03-24T02:28:35.398Z,1005.65
2016-03-24T02:29:35.386Z,1005.6
2016-03-24T02:30:35.372Z,1005.65
2016-03-24T02:31:35.344Z,1005.66
2016-03-24T02:32:35.330Z,1005.67
2016-03-24T02:33:35.333Z,1005.62
2016-03-24T02:34:35.305Z,1005.62
2016-03-24T02:35:35.292Z,1005.66
2016-03-24T02:36:35.279Z,1005.65
2016-03-24T02:37:35.266Z,1005.63
2016-03-24T02:38:35.253Z,1005.64
2016-03-24T02:39:35.225Z,1005.63
2016-03-24T02:40:35.212Z,1005.67
2016-03-24T02:41:35.199Z,1005.7
2016-03-24T02:42:35.186Z,1005.68
2016-03-24T02:43:35.174Z,1005.68
2016-03-24T02:44:35.160Z,1005.7
2016-03-24T02:45:35.147Z,1005.7
2016-03-24T02:46:35.134Z,1005.7
2016-03-24T02:47:35.121Z,1005.77
2016-03-24T02:48:35.124Z,1005.74
2016-03-24T02:49:35.080Z,1005.78
2016-03-24T02:50:35.067Z,1005.77
2016-03-24T02:51:35.054Z,1005.84
2016-03-24T02:52:35.041Z,1005.8
2016-03-24T02:53:35.029Z,1005.78
2016-03-24T02:54:35.015Z,1005.83
2016-03-24T02:55:34.987Z,1005.87
2016-03-24T02:56:34.973Z,1005.81
2016-03-24T02:57:34.961Z,1005.77
2016-03-24T02:58:34.948Z,1005.79
2016-03-24T02:59:34.934Z,1005.83
2016-03-24T03:00:34.922Z,1005.85
2016-03-24T03:01:34.908Z,1005.83
2016-03-24T03:02:34.895Z,1005.88
2016-03-24T03:03:34.914Z,1005.84
2016-03-24T03:04:34.855Z,1005.84
2016-03-24T03:05:34.841Z,1005.84
2016-03-24T03:06:34.829Z,1005.88
2016-03-24T03:07:34.816Z,1005.85
2016-03-24T03:08:34.803Z,1005.87
2016-03-24T03:09:34.789Z,1005.9
2016-03-24T03:10:34.777Z,1005.87
2016-03-24T03:11:34.748Z,1005.89
2016-03-24T03:12:34.736Z,1005.88
2016-03-24T03:13:34.722Z,1005.9
2016-03-24T03:14:34.710Z,1005.92
2016-03-24T03:15:34.696Z,1005.89
2016-03-24T03:16:34.683Z,1005.89
2016-03-24T03:17:34.670Z,1005.9
2016-03-24T03:18:34.705Z,1005.92
2016-03-24T03:19:34.629Z,1005.9
2016-03-24T03:20:34.616Z,1005.92
2016-03-24T03:21:34.604Z,1005.86
2016-03-24T03:22:34.591Z,1005.88
2016-03-24T03:23:34.577Z,1005.85
2016-03-24T03:24:34.565Z,1005.88
2016-03-24T03:25:34.551Z,1005.86
2016-03-24T03:26:34.523Z,1005.87
2016-03-24T03:27:34.510Z,1005.88
2016-03-24T03:28:34.498Z,1005.87
2016-03-24T03:29:34.484Z,1005.91
2016-03-24T03:30:34.503Z,1005.9
2016-03-24T03:31:34.458Z,1005.86
2016-03-24T03:32:34.445Z,1005.86
2016-03-24T03:33:34.417Z,1005.8
2016-03-24T03:34:34.404Z,1005.82
2016-03-24T03:35:34.392Z,1005.79
2016-03-24T03:36:34.378Z,1005.84
2016-03-24T03:37:34.365Z,1005.8
2016-03-24T03:38:34.352Z,1005.82
2016-03-24T03:39:34.324Z,1005.81
2016-03-24T03:40:34.310Z,1005.78
2016-03-24T03:41:34.298Z,1005.77
2016-03-24T03:42:34.285Z,1005.76
2016-03-24T03:43:34.272Z,1005.8
2016-03-24T03:44:34.258Z,1005.85
2016-03-24T03:45:34.246Z,1005.81
2016-03-24T03:46:34.232Z,1005.79
2016-03-24T03:47:34.204Z,1005.78
2016-03-24T03:48:34.191Z,1005.79
2016-03-24T03:49:34.179Z,1005.79
2016-03-24T03:50:34.165Z,1005.79
2016-03-24T03:51:34.153Z,1005.77
2016-03-24T03:52:34.140Z,1005.81
2016-03-24T03:53:34.127Z,1005.76
2016-03-24T03:54:34.098Z,1005.77
2016-03-24T03:55:34.085Z,1005.74
2016-03-24T03:56:34.072Z,1005.78
2016-03-24T03:57:34.060Z,1005.74
2016-03-24T03:58:34.046Z,1005.75
2016-03-24T03:59:34.034Z,1005.75
2016-03-24T04:00:34.036Z,1005.71
2016-03-24T04:01:34.008Z,1005.76
2016-03-24T04:02:33.995Z,1005.73
2016-03-24T04:03:33.967Z,1005.71
2016-03-24T04:04:33.953Z,1005.76
2016-03-24T04:05:33.940Z,1005.76
2016-03-24T04:06:33.928Z,1005.76
2016-03-24T04:07:33.903Z,1005.73
2016-03-24T04:08:33.891Z,1005.72
2016-03-24T04:09:33.877Z,1005.74
2016-03-24T04:10:33.865Z,1005.72
2016-03-24T04:11:33.851Z,1005.72
2016-03-24T04:12:33.839Z,1005.74
2016-03-24T04:13:33.826Z,1005.7
2016-03-24T04:14:33.797Z,1005.76
2016-03-24T04:15:33.784Z,1005.74
2016-03-24T04:16:33.772Z,1005.72
2016-03-24T04:17:33.759Z,1005.75
2016-03-24T04:18:33.746Z,1005.73
2016-03-24T04:19:33.732Z,1005.78
2016-03-24T04:20:33.720Z,1005.77
2016-03-24T04:21:33.707Z,1005.75
2016-03-24T04:22:33.679Z,1005.73
2016-03-24T04:23:33.665Z,1005.76
2016-03-24T04:24:33.653Z,1005.72
2016-03-24T04:25:33.640Z,1005.72
2016-03-24T04:26:33.626Z,1005.72
2016-03-24T04:27:33.614Z,1005.71
2016-03-24T04:28:33.585Z,1005.74
2016-03-24T04:29:33.572Z,1005.68
2016-03-24T04:30:33.559Z,1005.68
2016-03-24T04:31:33.547Z,1005.71
2016-03-24T04:32:33.533Z,1005.7
2016-03-24T04:33:33.520Z,1005.71
2016-03-24T04:34:33.507Z,1005.68
2016-03-24T04:35:33.494Z,1005.69
2016-03-24T04:36:33.481Z,1005.71
2016-03-24T04:37:33.469Z,1005.73
2016-03-24T04:38:33.440Z,1005.72
2016-03-24T04:39:33.427Z,1005.71
2016-03-24T04:40:33.413Z,1005.71
2016-03-24T04:41:33.401Z,1005.74
2016-03-24T04:42:33.388Z,1005.68
2016-03-24T04:43:33.375Z,1005.71
2016-03-24T04:44:33.346Z,1005.67
2016-03-24T04:45:33.334Z,1005.68
2016-03-24T04:46:33.321Z,1005.67
2016-03-24T04:47:33.308Z,1005.62
2016-03-24T04:48:33.295Z,1005.67
2016-03-24T04:49:33.282Z,1005.63
2016-03-24T04:50:33.268Z,1005.62
2016-03-24T04:51:33.241Z,1005.61
2016-03-24T04:52:33.228Z,1005.65
2016-03-24T04:53:33.215Z,1005.64
2016-03-24T04:54:33.201Z,1005.66
2016-03-24T04:55:33.189Z,1005.73
2016-03-24T04:56:33.175Z,1005.72
2016-03-24T04:57:33.163Z,1005.72
2016-03-24T04:58:33.134Z,1005.72
2016-03-24T04:59:33.122Z,1005.72
2016-03-24T05:00:33.108Z,1005.75
2016-03-24T05:01:33.096Z,1005.77
2016-03-24T05:02:33.083Z,1005.77
2016-03-24T05:03:33.070Z,1005.75
2016-03-24T05:04:33.056Z,1005.75
2016-03-24T05:05:33.044Z,1005.73
2016-03-24T05:06:33.030Z,1005.76
2016-03-24T05:07:33.003Z,1005.75
2016-03-24T05:08:32.989Z,1005.75
2016-03-24T05:09:32.977Z,1005.72
2016-03-24T05:10:32.963Z,1005.72
2016-03-24T05:11:32.950Z,1005.7
2016-03-24T05:12:32.922Z,1005.7
2016-03-24T05:13:32.924Z,1005.69
2016-03-24T05:14:32.896Z,1005.71
2016-03-24T05:15:32.883Z,1005.67
2016-03-24T05:16:32.871Z,1005.65
2016-03-24T05:17:32.857Z,1005.63
2016-03-24T05:18:32.844Z,1005.67
2016-03-24T05:19:32.816Z,1005.69
2016-03-24T05:20:32.803Z,1005.71
2016-03-24T05:21:32.790Z,1005.69
2016-03-24T05:22:32.777Z,1005.66
2016-03-24T05:23:32.764Z,1005.7
2016-03-24T05:24:32.751Z,1005.71
2016-03-24T05:25:32.722Z,1005.71
2016-03-24T05:26:32.709Z,1005.71
2016-03-24T05:27:32.697Z,1005.7
2016-03-24T05:28:32.684Z,1005.73
2016-03-24T05:29:32.670Z,1005.74
2016-03-24T05:30:32.658Z,1005.75
2016-03-24T05:31:32.645Z,1005.73
2016-03-24T05:32:32.617Z,1005.75
2016-03-24T05:33:32.603Z,1005.76
2016-03-24T05:34:32.591Z,1005.77
2016-03-24T05:35:32.577Z,1005.8
2016-03-24T05:36:32.565Z,1005.8
2016-03-24T05:37:32.552Z,1005.77
2016-03-24T05:38:32.539Z,1005.8
2016-03-24T05:39:32.525Z,1005.8
2016-03-24T05:40:32.497Z,1005.84
2016-03-24T05:41:32.484Z,1005.84
2016-03-24T05:42:32.472Z,1005.88
2016-03-24T05:43:32.474Z,1005.9
2016-03-24T05:44:32.446Z,1005.94
2016-03-24T05:45:32.433Z,1005.92
2016-03-24T05:46:32.420Z,1005.97
2016-03-24T05:47:32.391Z,1006
2016-03-24T05:48:32.379Z,1005.98
2016-03-24T05:49:32.365Z,1006
2016-03-24T05:50:32.352Z,1005.98
2016-03-24T05:51:32.340Z,1006
2016-03-24T05:52:32.327Z,1006.04
2016-03-24T05:53:32.313Z,1006.05
2016-03-24T05:54:32.301Z,1006.07
2016-03-24T05:55:32.272Z,1006.11
2016-03-24T05:56:32.259Z,1006.12
2016-03-24T05:57:32.246Z,1006.11
2016-03-24T05:58:32.234Z,1006.07
2016-03-24T05:59:32.236Z,1006.08
2016-03-24T06:00:32.223Z,1006.12
2016-03-24T06:01:32.195Z,1006.15
2016-03-24T06:02:32.181Z,1006.11
2016-03-24T06:03:32.153Z,1006.12
2016-03-24T06:04:32.139Z,1006.17
2016-03-24T06:05:32.127Z,1006.18
2016-03-24T06:06:32.130Z,1006.21
2016-03-24T06:07:32.101Z,1006.21
2016-03-24T06:08:32.089Z,1006.17
2016-03-24T06:09:32.075Z,1006.21
2016-03-24T06:10:32.062Z,1006.21
2016-03-24T06:11:32.049Z,1006.22
2016-03-24T06:12:32.036Z,1006.19
2016-03-24T06:13:32.024Z,1006.19
2016-03-24T06:14:32.010Z,1006.18
2016-03-24T06:15:31.982Z,1006.16
2016-03-24T06:16:31.985Z,1006.14
2016-03-24T06:17:31.957Z,1006.17
2016-03-24T06:18:31.943Z,1006.2
2016-03-24T06:19:31.930Z,1006.26
2016-03-24T06:20:31.917Z,1006.25
2016-03-24T06:21:31.904Z,1006.25
2016-03-24T06:22:31.891Z,1006.27
2016-03-24T06:23:31.863Z,1006.24
2016-03-24T06:24:31.850Z,1006.24
2016-03-24T06:25:31.837Z,1006.24
2016-03-24T06:26:31.823Z,1006.28
2016-03-24T06:27:31.812Z,1006.26
2016-03-24T06:28:31.798Z,1006.24
2016-03-24T06:29:31.785Z,1006.23
2016-03-24T06:30:31.772Z,1006.21
2016-03-24T06:31:31.760Z,1006.26
2016-03-24T06:32:31.747Z,1006.25
2016-03-24T06:33:31.734Z,1006.27
2016-03-24T06:34:31.705Z,1006.29
2016-03-24T06:35:31.692Z,1006.31
2016-03-24T06:36:31.679Z,1006.34
2016-03-24T06:37:31.667Z,1006.36
2016-03-24T06:38:31.653Z,1006.38
2016-03-24T06:39:31.641Z,1006.32
2016-03-24T06:40:31.627Z,1006.34
2016-03-24T06:41:31.614Z,1006.34
2016-03-24T06:42:31.602Z,1006.35
2016-03-24T06:43:31.573Z,1006.37
2016-03-24T06:44:31.575Z,1006.36
2016-03-24T06:45:31.547Z,1006.36
2016-03-24T06:46:31.535Z,1006.37
2016-03-24T06:47:31.522Z,1006.38
2016-03-24T06:48:31.508Z,1006.38
2016-03-24T06:49:31.495Z,1006.39
2016-03-24T06:50:37.763Z,1006.42
2016-03-24T06:51:31.485Z,1006.39
2016-03-24T06:52:31.472Z,1006.45
2016-03-24T06:53:31.443Z,1006.44
2016-03-24T06:54:31.431Z,1006.39
2016-03-24T06:55:31.401Z,1006.38
2016-03-24T06:56:31.390Z,1006.4
2016-03-24T06:57:31.376Z,1006.41
2016-03-24T06:58:31.363Z,1006.39
2016-03-24T06:59:31.350Z,1006.42
2016-03-24T07:00:31.338Z,1006.4
2016-03-24T07:01:31.325Z,1006.42
2016-03-24T07:02:31.312Z,1006.44
2016-03-24T07:03:31.298Z,1006.44
2016-03-24T07:04:31.286Z,1006.38
2016-03-24T07:05:31.273Z,1006.38
2016-03-24T07:06:31.260Z,1006.42
2016-03-24T07:07:31.247Z,1006.41
2016-03-24T07:08:31.219Z,1006.43
2016-03-24T07:09:31.206Z,1006.41
2016-03-24T07:10:31.193Z,1006.43
2016-03-24T07:11:31.180Z,1006.46
2016-03-24T07:12:31.166Z,1006.43
2016-03-24T07:13:31.153Z,1006.44
2016-03-24T07:14:31.156Z,1006.51
2016-03-24T07:15:31.144Z,1006.48
2016-03-24T07:16:31.115Z,1006.47
2016-03-24T07:17:31.102Z,1006.46
2016-03-24T07:18:31.088Z,1006.47
2016-03-24T07:19:31.061Z,1006.45
2016-03-24T07:20:31.063Z,1006.41
2016-03-24T07:21:31.049Z,1006.46
2016-03-24T07:22:31.022Z,1006.48
2016-03-24T07:23:31.009Z,1006.44
2016-03-24T07:24:30.996Z,1006.46
2016-03-24T07:25:30.983Z,1006.48
2016-03-24T07:26:30.970Z,1006.45
2016-03-24T07:27:30.957Z,1006.51
2016-03-24T07:28:30.944Z,1006.47
2016-03-24T07:29:30.932Z,1006.5
2016-03-24T07:30:30.918Z,1006.49
2016-03-24T07:31:30.905Z,1006.52
2016-03-24T07:32:30.893Z,1006.57
2016-03-24T07:33:30.879Z,1006.56
2016-03-24T07:34:30.867Z,1006.57
2016-03-24T07:35:30.854Z,1006.56
2016-03-24T07:36:30.840Z,1006.56
2016-03-24T07:37:30.828Z,1006.57
2016-03-24T07:38:30.814Z,1006.55
2016-03-24T07:39:30.802Z,1006.52
2016-03-24T07:40:30.789Z,1006.56
2016-03-24T07:41:30.760Z,1006.56
2016-03-24T07:42:30.747Z,1006.6
2016-03-24T07:43:30.734Z,1006.62
2016-03-24T07:44:30.722Z,1006.6
2016-03-24T07:45:30.708Z,1006.62
2016-03-24T07:46:30.696Z,1006.64
2016-03-24T07:47:30.682Z,1006.69
2016-03-24T07:48:30.670Z,1006.63
2016-03-24T07:49:30.672Z,1006.66
2016-03-24T07:50:30.643Z,1006.7
2016-03-24T07:51:30.631Z,1006.71
2016-03-24T07:52:30.618Z,1006.68
2016-03-24T07:53:30.605Z,1006.74
2016-03-24T07:54:30.593Z,1006.73
2016-03-24T07:55:30.579Z,1006.73
2016-03-24T07:56:30.566Z,1006.74
2016-03-24T07:57:30.554Z,1006.72
2016-03-24T07:58:30.541Z,1006.74
2016-03-24T07:59:30.527Z,1006.73
2016-03-24T08:00:30.514Z,1006.75
2016-03-24T08:01:30.487Z,1006.75
2016-03-24T08:02:30.473Z,1006.72
2016-03-24T08:03:30.460Z,1006.74
2016-03-24T08:04:30.620Z,1006.76
2016-03-24T08:05:30.434Z,1006.75
2016-03-24T08:06:30.436Z,1006.8
2016-03-24T08:07:30.403Z,1006.79
2016-03-24T08:08:30.389Z,1006.79
2016-03-24T08:09:30.377Z,1006.81
2016-03-24T08:10:30.364Z,1006.8
2016-03-24T08:11:30.350Z,1006.81
2016-03-24T08:12:30.338Z,1006.81
2016-03-24T08:13:30.324Z,1006.78
2016-03-24T08:14:30.343Z,1006.81
2016-03-24T08:15:30.299Z,1006.86
2016-03-24T08:16:30.286Z,1006.87
2016-03-24T08:17:30.273Z,1006.84
2016-03-24T08:18:30.260Z,1006.85
2016-03-24T08:19:30.247Z,1006.83
2016-03-24T08:20:30.235Z,1006.85
2016-03-24T08:21:30.221Z,1006.85
2016-03-24T08:22:30.208Z,1006.87
2016-03-24T08:23:30.196Z,1006.88
2016-03-24T08:24:30.182Z,1006.91
2016-03-24T08:25:30.170Z,1006.85
2016-03-24T08:26:30.141Z,1006.88
2016-03-24T08:27:30.128Z,1006.86
2016-03-24T08:28:30.115Z,1006.88
2016-03-24T08:29:30.103Z,1006.89
2016-03-24T08:30:30.089Z,1006.88
2016-03-24T08:31:30.076Z,1006.87
2016-03-24T08:32:30.064Z,1006.85
2016-03-24T08:33:30.050Z,1006.89
2016-03-24T08:34:30.026Z,1006.87
2016-03-24T08:35:29.998Z,1006.84
2016-03-24T08:36:29.968Z,1006.83
2016-03-24T08:37:29.941Z,1006.87
2016-03-24T08:38:29.911Z,1006.87
2016-03-24T08:39:29.889Z,1006.85
2016-03-24T08:40:29.872Z,1006.86
2016-03-24T08:41:29.852Z,1006.86
2016-03-24T08:42:29.834Z,1006.87
2016-03-24T08:43:29.815Z,1006.86
2016-03-24T08:44:29.799Z,1006.87
2016-03-24T08:45:29.784Z,1006.84
2016-03-24T08:46:29.769Z,1006.89
2016-03-24T08:47:29.755Z,1006.86
2016-03-24T08:48:29.740Z,1006.87
2016-03-24T08:49:29.757Z,1006.92
2016-03-24T08:50:29.711Z,1006.9
2016-03-24T08:51:29.683Z,1006.88
2016-03-24T08:52:29.684Z,1006.87
2016-03-24T08:53:29.672Z,1006.88
2016-03-24T08:54:29.658Z,1006.89
2016-03-24T08:55:29.629Z,1006.91
2016-03-24T08:56:29.632Z,1006.91
2016-03-24T08:57:29.601Z,1006.93
2016-03-24T08:58:29.589Z,1006.89
2016-03-24T08:59:29.575Z,1006.95
2016-03-24T09:00:29.563Z,1006.93
2016-03-24T09:01:29.550Z,1006.95
2016-03-24T09:02:29.537Z,1006.95
2016-03-24T09:03:29.524Z,1006.96
2016-03-24T09:04:29.527Z,1006.99
2016-03-24T09:05:29.498Z,1006.97
2016-03-24T09:06:29.485Z,1006.96
2016-03-24T09:07:29.472Z,1006.99
2016-03-24T09:08:29.459Z,1006.97
2016-03-24T09:09:29.446Z,1006.96
2016-03-24T09:10:29.433Z,1006.97
2016-03-24T09:11:29.421Z,1006.96
2016-03-24T09:12:29.407Z,1006.97
2016-03-24T09:13:29.394Z,1006.95
2016-03-24T09:14:29.382Z,1006.96
2016-03-24T09:15:29.368Z,1006.97
2016-03-24T09:16:29.356Z,1007
2016-03-24T09:17:29.343Z,1006.95
2016-03-24T09:18:29.329Z,1006.93
2016-03-24T09:19:29.317Z,1006.96
2016-03-24T09:20:29.304Z,1006.94
2016-03-24T09:21:29.291Z,1006.94
2016-03-24T09:22:29.278Z,1006.92
2016-03-24T09:23:29.265Z,1006.9
2016-03-24T09:24:29.253Z,1006.93
2016-03-24T09:25:29.239Z,1006.89
2016-03-24T09:26:29.226Z,1006.94
2016-03-24T09:27:29.214Z,1006.93
2016-03-24T09:28:29.201Z,1006.9
2016-03-24T09:29:29.187Z,1006.95
2016-03-24T09:30:29.175Z,1006.93
2016-03-24T09:31:29.161Z,1006.95
2016-03-24T09:32:29.149Z,1006.94
2016-03-24T09:33:29.136Z,1006.93
2016-03-24T09:34:29.122Z,1006.94
2016-03-24T09:35:29.110Z,1006.92
2016-03-24T09:36:29.097Z,1006.93
2016-03-24T09:37:29.084Z,1006.94
2016-03-24T09:38:29.071Z,1006.96
2016-03-24T09:39:29.058Z,1006.93
2016-03-24T09:40:29.046Z,1006.92
2016-03-24T09:41:29.032Z,1006.95
2016-03-24T09:42:29.019Z,1006.91
2016-03-24T09:43:29.007Z,1006.94
2016-03-24T09:44:28.994Z,1006.93
2016-03-24T09:45:28.996Z,1006.93
2016-03-24T09:46:28.968Z,1006.96
2016-03-24T09:47:28.971Z,1006.93
2016-03-24T09:48:28.942Z,1006.95
2016-03-24T09:49:28.929Z,1006.95
2016-03-24T09:50:28.915Z,1006.92
2016-03-24T09:51:28.903Z,1006.93
2016-03-24T09:52:28.890Z,1006.93
2016-03-24T09:53:28.892Z,1006.92
2016-03-24T09:54:28.880Z,1006.9
2016-03-24T09:55:28.867Z,1006.88
2016-03-24T09:56:28.853Z,1006.94
2016-03-24T09:57:28.842Z,1006.94
2016-03-24T09:58:28.828Z,1006.97
2016-03-24T09:59:28.814Z,1006.94
2016-03-24T10:00:28.803Z,1006.94
2016-03-24T10:01:28.789Z,1006.96
2016-03-24T10:02:28.776Z,1006.97
2016-03-24T10:03:28.764Z,1006.94
2016-03-24T10:04:28.750Z,1006.93
2016-03-24T10:05:28.738Z,1006.91
2016-03-24T10:06:28.725Z,1006.92
2016-03-24T10:07:28.711Z,1006.93
2016-03-24T10:08:28.698Z,1006.93
2016-03-24T10:09:28.686Z,1006.92
2016-03-24T10:10:28.672Z,1006.95
2016-03-24T10:11:28.660Z,1006.93
2016-03-24T10:12:28.663Z,1006.96
2016-03-24T10:13:28.635Z,1006.91
2016-03-24T10:14:28.637Z,1006.94
2016-03-24T10:15:28.624Z,1006.92
2016-03-24T10:16:28.610Z,1006.91
2016-03-24T10:17:28.598Z,1006.92
2016-03-24T10:18:28.585Z,1006.91
2016-03-24T10:19:28.572Z,1006.93
2016-03-24T10:20:28.559Z,1006.94
2016-03-24T10:21:28.546Z,1006.91
2016-03-24T10:22:28.534Z,1006.89
2016-03-24T10:23:28.521Z,1006.96
2016-03-24T10:24:28.507Z,1006.87
2016-03-24T10:25:28.509Z,1006.88
2016-03-24T10:26:28.497Z,1006.89
2016-03-24T10:27:28.484Z,1006.86
2016-03-24T10:28:28.471Z,1006.87
2016-03-24T10:29:28.458Z,1006.9
2016-03-24T10:30:28.462Z,1006.87
2016-03-24T10:31:28.433Z,1006.89
2016-03-24T10:32:28.420Z,1006.9
2016-03-24T10:33:28.422Z,1006.92
2016-03-24T10:34:28.409Z,1006.95
2016-03-24T10:35:28.397Z,1006.9
2016-03-24T10:36:28.383Z,1006.9
2016-03-24T10:37:28.369Z,1006.93
2016-03-24T10:38:28.358Z,1006.91
2016-03-24T10:39:28.344Z,1006.89
2016-03-24T10:40:28.332Z,1006.89
2016-03-24T10:41:28.334Z,1006.92
2016-03-24T10:42:28.322Z,1006.96
2016-03-24T10:43:28.308Z,1006.9
2016-03-24T10:44:28.295Z,1006.92
2016-03-24T10:45:28.282Z,1006.96
2016-03-24T10:46:28.269Z,1006.94
2016-03-24T10:47:28.271Z,1006.92
2016-03-24T10:48:28.259Z,1006.96
2016-03-24T10:49:28.246Z,1006.91
2016-03-24T10:50:28.234Z,1006.98
2016-03-24T10:51:28.220Z,1006.94
2016-03-24T10:52:28.207Z,1006.96
2016-03-24T10:53:28.195Z,1006.96
2016-03-24T10:54:28.182Z,1006.95
2016-03-24T10:55:28.184Z,1006.97
2016-03-24T10:56:28.171Z,1006.96
2016-03-24T10:57:28.159Z,1006.96
2016-03-24T10:58:28.145Z,1006.96
2016-03-24T10:59:28.133Z,1006.97
2016-03-24T11:00:28.119Z,1006.94
2016-03-24T11:01:28.123Z,1006.93
2016-03-24T11:02:28.110Z,1006.97
2016-03-24T11:03:28.097Z,1006.91
2016-03-24T11:04:28.084Z,1006.93
2016-03-24T11:05:28.070Z,1006.89
2016-03-24T11:06:28.058Z,1006.9
2016-03-24T11:07:28.045Z,1006.9
2016-03-24T11:08:28.047Z,1006.88
2016-03-24T11:09:28.034Z,1006.87
2016-03-24T11:10:28.021Z,1006.88
2016-03-24T11:11:28.008Z,1006.88
2016-03-24T11:12:27.996Z,1006.91
2016-03-24T11:13:27.983Z,1006.91
2016-03-24T11:14:27.969Z,1006.85
2016-03-24T11:15:27.972Z,1006.88
2016-03-24T11:16:27.959Z,1006.91
2016-03-24T11:17:27.947Z,1006.89
2016-03-24T11:18:27.934Z,1006.88
2016-03-24T11:19:27.921Z,1006.91
2016-03-24T11:20:27.907Z,1006.86
2016-03-24T11:21:27.895Z,1006.91
2016-03-24T11:22:27.898Z,1006.85
2016-03-24T11:23:27.884Z,1006.85
2016-03-24T11:24:27.872Z,1006.87
2016-03-24T11:25:27.859Z,1006.88
2016-03-24T11:26:27.845Z,1006.87
2016-03-24T11:27:27.834Z,1006.87
2016-03-24T11:28:27.820Z,1006.8
2016-03-24T11:29:27.822Z,1006.85
2016-03-24T11:30:27.810Z,1006.88
2016-03-24T11:31:27.797Z,1006.9
2016-03-24T11:32:27.784Z,1006.86
2016-03-24T11:33:27.771Z,1006.89
2016-03-24T11:34:27.758Z,1006.82
2016-03-24T11:35:27.761Z,1006.88
2016-03-24T11:36:27.747Z,1006.88
2016-03-24T11:37:27.735Z,1006.89
2016-03-24T11:38:27.722Z,1006.88
2016-03-24T11:39:27.709Z,1006.88
2016-03-24T11:40:27.696Z,1006.91
2016-03-24T11:41:27.683Z,1006.9
2016-03-24T11:42:27.686Z,1006.93
2016-03-24T11:43:27.672Z,1006.87
2016-03-24T11:44:27.675Z,1006.9
2016-03-24T11:45:27.647Z,1006.9
2016-03-24T11:46:27.634Z,1006.91
2016-03-24T11:47:27.622Z,1006.91
2016-03-24T11:48:27.608Z,1006.9
2016-03-24T11:49:27.610Z,1006.92
2016-03-24T11:50:27.598Z,1006.87
2016-03-24T11:51:27.584Z,1006.86
2016-03-24T11:52:27.571Z,1006.87
2016-03-24T11:53:27.559Z,1006.88
2016-03-24T11:54:27.546Z,1006.91
2016-03-24T11:55:27.534Z,1006.91
2016-03-24T11:56:27.536Z,1006.93
2016-03-24T11:57:27.523Z,1006.87
2016-03-24T11:58:27.510Z,1006.91
2016-03-24T11:59:27.497Z,1006.88
2016-03-24T12:00:27.484Z,1006.89
2016-03-24T12:01:27.471Z,1006.88
2016-03-24T12:02:27.459Z,1006.86
2016-03-24T12:03:27.445Z,1006.88
2016-03-24T12:04:27.448Z,1006.89
2016-03-24T12:05:27.435Z,1006.9
2016-03-24T12:06:27.422Z,1006.87
2016-03-24T12:07:27.409Z,1006.89
2016-03-24T12:08:27.396Z,1006.85